sensor_id;sensor_type;location;lat;lon;timestamp;P1;durP1;ratioP1;P2;durP2;ratioP2
76900;SDS011;65859;43.020;25.096;2023-05-21T00:01:31;8.60;;;6.50;;
76900;SDS011;65859;43.020;25.096;2023-05-21T00:03:58;11.30;;;6.05;;
76900;SDS011;65859;43.020;25.096;2023-05-21T00:06:24;6.50;;;5.90;;
76900;SDS011;65859;43.020;25.096;2023-05-21T00:08:52;8.43;;;6.45;;
76900;SDS011;65859;43.020;25.096;2023-05-21T00:11:19;10.77;;;7.20;;
76900;SDS011;65859;43.020;25.096;2023-05-21T00:13:46;8.38;;;6.70;;
76900;SDS011;65859;43.020;25.096;2023-05-21T00:16:12;6.65;;;5.97;;
76900;SDS011;65859;43.020;25.096;2023-05-21T00:18:39;10.90;;;6.70;;
76900;SDS011;65859;43.020;25.096;2023-05-21T00:21:05;7.60;;;6.22;;
76900;SDS011;65859;43.020;25.096;2023-05-21T00:23:31;12.40;;;7.13;;
76900;SDS011;65859;43.020;25.096;2023-05-21T00:25:58;9.15;;;7.25;;
76900;SDS011;65859;43.020;25.096;2023-05-21T00:28:24;9.60;;;7.07;;
76900;SDS011;65859;43.020;25.096;2023-05-21T00:30:50;8.30;;;7.10;;
76900;SDS011;65859;43.020;25.096;2023-05-21T00:33:17;9.65;;;7.30;;
76900;SDS011;65859;43.020;25.096;2023-05-21T00:35:45;11.32;;;7.65;;
76900;SDS011;65859;43.020;25.096;2023-05-21T00:38:12;8.93;;;7.28;;
76900;SDS011;65859;43.020;25.096;2023-05-21T00:40:39;11.73;;;7.25;;
76900;SDS011;65859;43.020;25.096;2023-05-21T00:43:06;10.18;;;7.30;;
76900;SDS011;65859;43.020;25.096;2023-05-21T00:45:35;9.65;;;7.40;;
76900;SDS011;65859;43.020;25.096;2023-05-21T00:48:02;9.45;;;7.30;;
76900;SDS011;65859;43.020;25.096;2023-05-21T00:50:29;11.30;;;7.35;;
76900;SDS011;65859;43.020;25.096;2023-05-21T00:52:56;10.32;;;7.53;;
76900;SDS011;65859;43.020;25.096;2023-05-21T00:55:24;11.85;;;7.57;;
76900;SDS011;65859;43.020;25.096;2023-05-21T00:57:50;12.48;;;7.93;;
76900;SDS011;65859;43.020;25.096;2023-05-21T01:00:17;10.68;;;8.05;;
76900;SDS011;65859;43.020;25.096;2023-05-21T01:02:44;18.55;;;9.57;;
76900;SDS011;65859;43.020;25.096;2023-05-21T01:05:11;16.50;;;9.38;;
76900;SDS011;65859;43.020;25.096;2023-05-21T01:07:39;11.68;;;8.40;;
76900;SDS011;65859;43.020;25.096;2023-05-21T01:10:06;13.77;;;8.25;;
76900;SDS011;65859;43.020;25.096;2023-05-21T01:12:34;14.23;;;8.98;;
76900;SDS011;65859;43.020;25.096;2023-05-21T01:15:04;16.33;;;10.80;;
76900;SDS011;65859;43.020;25.096;2023-05-21T01:17:31;15.95;;;10.40;;
76900;SDS011;65859;43.020;25.096;2023-05-21T01:19:58;15.98;;;10.75;;
76900;SDS011;65859;43.020;25.096;2023-05-21T01:22:25;15.20;;;9.77;;
76900;SDS011;65859;43.020;25.096;2023-05-21T01:24:56;12.80;;;9.27;;
76900;SDS011;65859;43.020;25.096;2023-05-21T01:27:22;15.65;;;10.43;;
76900;SDS011;65859;43.020;25.096;2023-05-21T01:29:49;16.45;;;11.13;;
76900;SDS011;65859;43.020;25.096;2023-05-21T01:32:21;19.13;;;11.70;;
76900;SDS011;65859;43.020;25.096;2023-05-21T01:38:11;23.73;;;12.00;;
76900;SDS011;65859;43.020;25.096;2023-05-21T01:40:59;28.80;;;12.52;;
76900;SDS011;65859;43.020;25.096;2023-05-21T01:43:32;21.40;;;12.77;;
76900;SDS011;65859;43.020;25.096;2023-05-21T01:46:00;17.35;;;10.82;;
76900;SDS011;65859;43.020;25.096;2023-05-21T01:48:28;17.27;;;10.88;;
76900;SDS011;65859;43.020;25.096;2023-05-21T01:50:59;22.42;;;11.40;;
76900;SDS011;65859;43.020;25.096;2023-05-21T01:53:27;31.48;;;10.75;;
76900;SDS011;65859;43.020;25.096;2023-05-21T01:55:54;11.55;;;6.60;;
76900;SDS011;65859;43.020;25.096;2023-05-21T01:58:20;12.57;;;7.95;;
76900;SDS011;65859;43.020;25.096;2023-05-21T02:00:48;9.13;;;7.03;;
76900;SDS011;65859;43.020;25.096;2023-05-21T02:03:18;11.48;;;7.53;;
76900;SDS011;65859;43.020;25.096;2023-05-21T02:05:45;11.10;;;7.50;;
76900;SDS011;65859;43.020;25.096;2023-05-21T02:08:12;11.02;;;6.20;;
76900;SDS011;65859;43.020;25.096;2023-05-21T02:10:39;14.85;;;7.00;;
76900;SDS011;65859;43.020;25.096;2023-05-21T02:13:05;8.88;;;6.32;;
76900;SDS011;65859;43.020;25.096;2023-05-21T02:15:31;8.90;;;6.68;;
76900;SDS011;65859;43.020;25.096;2023-05-21T02:17:58;9.55;;;5.80;;
76900;SDS011;65859;43.020;25.096;2023-05-21T02:20:25;9.15;;;6.22;;
76900;SDS011;65859;43.020;25.096;2023-05-21T02:22:51;13.05;;;6.57;;
76900;SDS011;65859;43.020;25.096;2023-05-21T02:25:18;9.50;;;6.63;;
76900;SDS011;65859;43.020;25.096;2023-05-21T02:27:44;8.55;;;6.32;;
76900;SDS011;65859;43.020;25.096;2023-05-21T02:30:11;10.48;;;7.40;;
76900;SDS011;65859;43.020;25.096;2023-05-21T02:32:40;10.85;;;7.95;;
76900;SDS011;65859;43.020;25.096;2023-05-21T02:35:07;12.15;;;7.85;;
76900;SDS011;65859;43.020;25.096;2023-05-21T02:37:35;9.35;;;7.75;;
76900;SDS011;65859;43.020;25.096;2023-05-21T02:40:02;9.20;;;6.93;;
76900;SDS011;65859;43.020;25.096;2023-05-21T02:42:33;11.63;;;7.93;;
76900;SDS011;65859;43.020;25.096;2023-05-21T02:45:01;13.10;;;8.02;;
76900;SDS011;65859;43.020;25.096;2023-05-21T02:47:30;12.10;;;8.07;;
76900;SDS011;65859;43.020;25.096;2023-05-21T02:49:57;16.02;;;7.75;;
76900;SDS011;65859;43.020;25.096;2023-05-21T02:52:24;9.98;;;7.35;;
76900;SDS011;65859;43.020;25.096;2023-05-21T02:54:50;12.13;;;7.88;;
76900;SDS011;65859;43.020;25.096;2023-05-21T02:57:17;10.63;;;8.18;;
76900;SDS011;65859;43.020;25.096;2023-05-21T02:59:43;10.10;;;8.40;;
76900;SDS011;65859;43.020;25.096;2023-05-21T03:02:10;13.68;;;9.43;;
76900;SDS011;65859;43.020;25.096;2023-05-21T03:04:36;13.43;;;9.20;;
76900;SDS011;65859;43.020;25.096;2023-05-21T03:07:03;16.30;;;9.80;;
76900;SDS011;65859;43.020;25.096;2023-05-21T03:09:30;14.02;;;9.55;;
76900;SDS011;65859;43.020;25.096;2023-05-21T03:11:56;14.60;;;10.40;;
76900;SDS011;65859;43.020;25.096;2023-05-21T03:14:22;15.05;;;9.57;;
76900;SDS011;65859;43.020;25.096;2023-05-21T03:16:49;14.40;;;9.43;;
76900;SDS011;65859;43.020;25.096;2023-05-21T03:19:15;11.68;;;9.40;;
76900;SDS011;65859;43.020;25.096;2023-05-21T03:21:41;12.93;;;9.52;;
76900;SDS011;65859;43.020;25.096;2023-05-21T03:24:08;11.07;;;8.50;;
76900;SDS011;65859;43.020;25.096;2023-05-21T03:26:37;11.48;;;7.70;;
76900;SDS011;65859;43.020;25.096;2023-05-21T03:29:04;12.63;;;8.77;;
76900;SDS011;65859;43.020;25.096;2023-05-21T03:31:30;14.27;;;9.57;;
76900;SDS011;65859;43.020;25.096;2023-05-21T03:33:56;13.82;;;8.93;;
76900;SDS011;65859;43.020;25.096;2023-05-21T03:36:23;10.25;;;8.02;;
76900;SDS011;65859;43.020;25.096;2023-05-21T03:38:49;10.95;;;7.47;;
76900;SDS011;65859;43.020;25.096;2023-05-21T03:41:15;9.32;;;7.75;;
76900;SDS011;65859;43.020;25.096;2023-05-21T03:43:42;12.68;;;8.98;;
76900;SDS011;65859;43.020;25.096;2023-05-21T03:46:08;13.43;;;7.72;;
76900;SDS011;65859;43.020;25.096;2023-05-21T03:48:36;10.68;;;7.32;;
76900;SDS011;65859;43.020;25.096;2023-05-21T03:51:02;13.70;;;7.85;;
76900;SDS011;65859;43.020;25.096;2023-05-21T03:53:28;11.57;;;8.18;;
76900;SDS011;65859;43.020;25.096;2023-05-21T03:55:55;14.40;;;9.55;;
76900;SDS011;65859;43.020;25.096;2023-05-21T03:58:21;16.75;;;10.30;;
76900;SDS011;65859;43.020;25.096;2023-05-21T04:00:48;17.98;;;9.30;;
76900;SDS011;65859;43.020;25.096;2023-05-21T04:03:14;17.70;;;11.55;;
76900;SDS011;65859;43.020;25.096;2023-05-21T04:05:42;15.82;;;11.35;;
76900;SDS011;65859;43.020;25.096;2023-05-21T04:08:08;17.73;;;11.05;;
76900;SDS011;65859;43.020;25.096;2023-05-21T04:10:35;18.83;;;12.38;;
76900;SDS011;65859;43.020;25.096;2023-05-21T04:13:01;25.58;;;12.73;;
76900;SDS011;65859;43.020;25.096;2023-05-21T04:15:27;24.67;;;13.85;;
76900;SDS011;65859;43.020;25.096;2023-05-21T04:17:54;23.48;;;13.25;;
76900;SDS011;65859;43.020;25.096;2023-05-21T04:20:22;20.77;;;12.75;;
76900;SDS011;65859;43.020;25.096;2023-05-21T04:22:48;22.27;;;12.90;;
76900;SDS011;65859;43.020;25.096;2023-05-21T04:25:16;18.33;;;11.82;;
76900;SDS011;65859;43.020;25.096;2023-05-21T04:27:44;17.77;;;12.20;;
76900;SDS011;65859;43.020;25.096;2023-05-21T04:30:11;19.27;;;12.18;;
76900;SDS011;65859;43.020;25.096;2023-05-21T04:32:38;17.20;;;11.50;;
76900;SDS011;65859;43.020;25.096;2023-05-21T04:35:04;18.65;;;12.05;;
76900;SDS011;65859;43.020;25.096;2023-05-21T04:37:31;14.80;;;11.23;;
76900;SDS011;65859;43.020;25.096;2023-05-21T04:39:59;16.92;;;11.48;;
76900;SDS011;65859;43.020;25.096;2023-05-21T04:42:26;15.02;;;10.88;;
76900;SDS011;65859;43.020;25.096;2023-05-21T04:44:54;15.70;;;10.15;;
76900;SDS011;65859;43.020;25.096;2023-05-21T04:47:20;13.88;;;10.60;;
76900;SDS011;65859;43.020;25.096;2023-05-21T04:49:46;15.18;;;10.77;;
76900;SDS011;65859;43.020;25.096;2023-05-21T04:52:16;11.65;;;8.05;;
76900;SDS011;65859;43.020;25.096;2023-05-21T04:54:42;12.57;;;8.63;;
76900;SDS011;65859;43.020;25.096;2023-05-21T04:57:10;18.80;;;9.93;;
76900;SDS011;65859;43.020;25.096;2023-05-21T04:59:36;12.90;;;8.68;;
76900;SDS011;65859;43.020;25.096;2023-05-21T05:02:03;12.32;;;9.00;;
76900;SDS011;65859;43.020;25.096;2023-05-21T05:04:30;9.05;;;7.55;;
76900;SDS011;65859;43.020;25.096;2023-05-21T05:06:56;9.23;;;7.20;;
76900;SDS011;65859;43.020;25.096;2023-05-21T05:09:23;13.27;;;7.20;;
76900;SDS011;65859;43.020;25.096;2023-05-21T05:11:50;10.48;;;6.85;;
76900;SDS011;65859;43.020;25.096;2023-05-21T05:14:16;10.20;;;6.80;;
76900;SDS011;65859;43.020;25.096;2023-05-21T05:16:42;11.00;;;7.10;;
76900;SDS011;65859;43.020;25.096;2023-05-21T05:19:12;9.73;;;7.53;;
76900;SDS011;65859;43.020;25.096;2023-05-21T05:21:38;10.70;;;6.95;;
76900;SDS011;65859;43.020;25.096;2023-05-21T05:24:06;10.48;;;8.02;;
76900;SDS011;65859;43.020;25.096;2023-05-21T05:26:33;12.05;;;8.65;;
76900;SDS011;65859;43.020;25.096;2023-05-21T05:28:59;16.15;;;9.98;;
76900;SDS011;65859;43.020;25.096;2023-05-21T05:31:25;10.85;;;9.00;;
76900;SDS011;65859;43.020;25.096;2023-05-21T05:33:52;11.40;;;8.82;;
76900;SDS011;65859;43.020;25.096;2023-05-21T05:36:18;14.27;;;9.23;;
76900;SDS011;65859;43.020;25.096;2023-05-21T05:38:45;11.30;;;8.23;;
76900;SDS011;65859;43.020;25.096;2023-05-21T05:41:11;12.07;;;9.30;;
76900;SDS011;65859;43.020;25.096;2023-05-21T05:43:37;10.27;;;8.25;;
76900;SDS011;65859;43.020;25.096;2023-05-21T05:46:04;10.52;;;8.07;;
76900;SDS011;65859;43.020;25.096;2023-05-21T05:48:30;11.60;;;7.70;;
76900;SDS011;65859;43.020;25.096;2023-05-21T05:50:56;12.13;;;7.80;;
76900;SDS011;65859;43.020;25.096;2023-05-21T05:53:23;10.48;;;8.32;;
76900;SDS011;65859;43.020;25.096;2023-05-21T05:55:51;12.10;;;8.27;;
76900;SDS011;65859;43.020;25.096;2023-05-21T05:58:17;8.75;;;7.82;;
76900;SDS011;65859;43.020;25.096;2023-05-21T06:00:43;9.02;;;7.65;;
76900;SDS011;65859;43.020;25.096;2023-05-21T06:03:10;9.82;;;7.55;;
76900;SDS011;65859;43.020;25.096;2023-05-21T06:05:36;11.68;;;8.32;;
76900;SDS011;65859;43.020;25.096;2023-05-21T06:08:03;10.98;;;7.95;;
76900;SDS011;65859;43.020;25.096;2023-05-21T06:10:29;14.10;;;8.48;;
76900;SDS011;65859;43.020;25.096;2023-05-21T06:12:56;10.77;;;8.13;;
76900;SDS011;65859;43.020;25.096;2023-05-21T06:15:22;10.80;;;8.10;;
76900;SDS011;65859;43.020;25.096;2023-05-21T06:17:48;9.60;;;7.45;;
76900;SDS011;65859;43.020;25.096;2023-05-21T06:20:14;11.73;;;8.93;;
76900;SDS011;65859;43.020;25.096;2023-05-21T06:22:41;12.73;;;9.38;;
76900;SDS011;65859;43.020;25.096;2023-05-21T06:25:07;15.15;;;9.73;;
76900;SDS011;65859;43.020;25.096;2023-05-21T06:27:36;12.00;;;8.25;;
76900;SDS011;65859;43.020;25.096;2023-05-21T06:30:02;12.43;;;8.95;;
76900;SDS011;65859;43.020;25.096;2023-05-21T06:32:30;11.13;;;9.25;;
76900;SDS011;65859;43.020;25.096;2023-05-21T06:34:56;15.63;;;10.60;;
76900;SDS011;65859;43.020;25.096;2023-05-21T06:37:22;12.93;;;9.32;;
76900;SDS011;65859;43.020;25.096;2023-05-21T06:39:48;12.90;;;10.07;;
76900;SDS011;65859;43.020;25.096;2023-05-21T06:42:15;14.40;;;10.63;;
76900;SDS011;65859;43.020;25.096;2023-05-21T06:44:41;13.35;;;10.23;;
76900;SDS011;65859;43.020;25.096;2023-05-21T06:47:08;15.80;;;9.50;;
76900;SDS011;65859;43.020;25.096;2023-05-21T06:49:34;11.40;;;10.02;;
76900;SDS011;65859;43.020;25.096;2023-05-21T06:52:00;13.63;;;9.98;;
76900;SDS011;65859;43.020;25.096;2023-05-21T06:54:27;14.52;;;9.43;;
76900;SDS011;65859;43.020;25.096;2023-05-21T06:56:53;11.98;;;9.20;;
76900;SDS011;65859;43.020;25.096;2023-05-21T06:59:21;10.90;;;9.02;;
76900;SDS011;65859;43.020;25.096;2023-05-21T07:01:48;10.90;;;8.20;;
76900;SDS011;65859;43.020;25.096;2023-05-21T07:04:14;10.05;;;8.57;;
76900;SDS011;65859;43.020;25.096;2023-05-21T07:06:40;12.70;;;8.63;;
76900;SDS011;65859;43.020;25.096;2023-05-21T07:09:07;11.82;;;8.93;;
76900;SDS011;65859;43.020;25.096;2023-05-21T07:11:34;9.63;;;7.75;;
76900;SDS011;65859;43.020;25.096;2023-05-21T07:14:00;8.82;;;7.93;;
76900;SDS011;65859;43.020;25.096;2023-05-21T07:16:28;9.25;;;8.05;;
76900;SDS011;65859;43.020;25.096;2023-05-21T07:18:54;9.88;;;7.32;;
76900;SDS011;65859;43.020;25.096;2023-05-21T07:21:20;8.25;;;6.93;;
76900;SDS011;65859;43.020;25.096;2023-05-21T07:23:47;9.48;;;6.80;;
76900;SDS011;65859;43.020;25.096;2023-05-21T07:26:13;8.52;;;6.78;;
76900;SDS011;65859;43.020;25.096;2023-05-21T07:28:40;10.90;;;7.13;;
76900;SDS011;65859;43.020;25.096;2023-05-21T07:31:06;8.80;;;7.00;;
76900;SDS011;65859;43.020;25.096;2023-05-21T07:33:36;7.97;;;7.18;;
76900;SDS011;65859;43.020;25.096;2023-05-21T07:36:02;8.75;;;6.65;;
76900;SDS011;65859;43.020;25.096;2023-05-21T07:38:30;9.32;;;6.53;;
76900;SDS011;65859;43.020;25.096;2023-05-21T07:40:56;10.63;;;6.65;;
76900;SDS011;65859;43.020;25.096;2023-05-21T07:43:22;8.95;;;7.43;;
76900;SDS011;65859;43.020;25.096;2023-05-21T07:45:49;7.20;;;6.25;;
76900;SDS011;65859;43.020;25.096;2023-05-21T07:48:16;9.50;;;6.13;;
76900;SDS011;65859;43.020;25.096;2023-05-21T07:50:43;7.18;;;5.95;;
76900;SDS011;65859;43.020;25.096;2023-05-21T07:53:09;7.50;;;6.05;;
76900;SDS011;65859;43.020;25.096;2023-05-21T07:55:35;10.95;;;6.32;;
76900;SDS011;65859;43.020;25.096;2023-05-21T07:58:01;7.20;;;6.50;;
76900;SDS011;65859;43.020;25.096;2023-05-21T08:00:28;8.63;;;5.60;;
76900;SDS011;65859;43.020;25.096;2023-05-21T08:03:07;8.95;;;5.60;;
76900;SDS011;65859;43.020;25.096;2023-05-21T08:05:36;8.52;;;6.40;;
76900;SDS011;65859;43.020;25.096;2023-05-21T08:08:02;8.40;;;5.45;;
76900;SDS011;65859;43.020;25.096;2023-05-21T08:10:29;10.48;;;5.90;;
76900;SDS011;65859;43.020;25.096;2023-05-21T08:12:56;9.43;;;6.18;;
76900;SDS011;65859;43.020;25.096;2023-05-21T08:15:22;6.72;;;6.03;;
76900;SDS011;65859;43.020;25.096;2023-05-21T08:17:48;10.88;;;6.03;;
76900;SDS011;65859;43.020;25.096;2023-05-21T08:20:15;11.80;;;5.72;;
76900;SDS011;65859;43.020;25.096;2023-05-21T08:22:41;11.60;;;5.80;;
76900;SDS011;65859;43.020;25.096;2023-05-21T08:25:08;9.00;;;5.90;;
76900;SDS011;65859;43.020;25.096;2023-05-21T08:27:34;8.40;;;5.97;;
76900;SDS011;65859;43.020;25.096;2023-05-21T08:30:01;11.05;;;5.47;;
76900;SDS011;65859;43.020;25.096;2023-05-21T08:32:28;7.40;;;4.85;;
76900;SDS011;65859;43.020;25.096;2023-05-21T08:34:54;5.00;;;4.50;;
76900;SDS011;65859;43.020;25.096;2023-05-21T08:37:21;6.13;;;4.70;;
76900;SDS011;65859;43.020;25.096;2023-05-21T08:39:48;7.05;;;4.90;;
76900;SDS011;65859;43.020;25.096;2023-05-21T08:42:26;8.65;;;5.93;;
76900;SDS011;65859;43.020;25.096;2023-05-21T08:45:03;7.95;;;4.97;;
76900;SDS011;65859;43.020;25.096;2023-05-21T08:47:34;7.53;;;5.05;;
76900;SDS011;65859;43.020;25.096;2023-05-21T08:50:04;8.02;;;4.65;;
76900;SDS011;65859;43.020;25.096;2023-05-21T08:52:34;9.13;;;4.90;;
76900;SDS011;65859;43.020;25.096;2023-05-21T08:55:04;7.25;;;5.22;;
76900;SDS011;65859;43.020;25.096;2023-05-21T08:57:31;6.25;;;4.50;;
76900;SDS011;65859;43.020;25.096;2023-05-21T08:59:58;6.32;;;4.50;;
76900;SDS011;65859;43.020;25.096;2023-05-21T09:02:26;7.88;;;4.95;;
76900;SDS011;65859;43.020;25.096;2023-05-21T09:04:56;7.63;;;4.53;;
76900;SDS011;65859;43.020;25.096;2023-05-21T09:07:27;7.15;;;4.97;;
76900;SDS011;65859;43.020;25.096;2023-05-21T09:09:56;10.07;;;4.60;;
76900;SDS011;65859;43.020;25.096;2023-05-21T09:12:35;7.03;;;4.70;;
76900;SDS011;65859;43.020;25.096;2023-05-21T09:15:02;9.90;;;4.60;;
76900;SDS011;65859;43.020;25.096;2023-05-21T09:17:29;7.47;;;4.60;;
76900;SDS011;65859;43.020;25.096;2023-05-21T09:20:08;8.35;;;4.63;;
76900;SDS011;65859;43.020;25.096;2023-05-21T09:22:47;6.65;;;4.55;;
76900;SDS011;65859;43.020;25.096;2023-05-21T09:25:15;5.97;;;4.60;;
76900;SDS011;65859;43.020;25.096;2023-05-21T09:27:43;7.13;;;4.00;;
76900;SDS011;65859;43.020;25.096;2023-05-21T09:30:10;5.30;;;4.55;;
76900;SDS011;65859;43.020;25.096;2023-05-21T09:32:38;7.68;;;4.45;;
76900;SDS011;65859;43.020;25.096;2023-05-21T09:35:07;10.75;;;4.93;;
76900;SDS011;65859;43.020;25.096;2023-05-21T09:40:16;10.30;;;5.00;;
76900;SDS011;65859;43.020;25.096;2023-05-21T09:42:47;10.10;;;4.75;;
76900;SDS011;65859;43.020;25.096;2023-05-21T09:47:45;6.35;;;4.57;;
76900;SDS011;65859;43.020;25.096;2023-05-21T09:50:14;8.27;;;5.15;;
76900;SDS011;65859;43.020;25.096;2023-05-21T09:52:44;5.57;;;4.17;;
76900;SDS011;65859;43.020;25.096;2023-05-21T09:55:12;7.22;;;4.25;;
76900;SDS011;65859;43.020;25.096;2023-05-21T09:57:42;8.50;;;4.60;;
76900;SDS011;65859;43.020;25.096;2023-05-21T10:00:23;11.75;;;4.57;;
76900;SDS011;65859;43.020;25.096;2023-05-21T10:03:00;8.50;;;5.40;;
76900;SDS011;65859;43.020;25.096;2023-05-21T10:05:33;7.35;;;4.72;;
76900;SDS011;65859;43.020;25.096;2023-05-21T10:08:00;9.52;;;5.10;;
76900;SDS011;65859;43.020;25.096;2023-05-21T10:10:28;4.80;;;4.40;;
76900;SDS011;65859;43.020;25.096;2023-05-21T10:13:04;6.78;;;4.53;;
76900;SDS011;65859;43.020;25.096;2023-05-21T10:15:34;7.50;;;4.78;;
76900;SDS011;65859;43.020;25.096;2023-05-21T10:18:02;5.68;;;4.60;;
76900;SDS011;65859;43.020;25.096;2023-05-21T10:20:30;10.50;;;4.32;;
76900;SDS011;65859;43.020;25.096;2023-05-21T10:22:57;6.65;;;4.60;;
76900;SDS011;65859;43.020;25.096;2023-05-21T10:25:24;7.50;;;4.35;;
76900;SDS011;65859;43.020;25.096;2023-05-21T10:27:53;5.72;;;4.50;;
76900;SDS011;65859;43.020;25.096;2023-05-21T10:30:21;5.95;;;4.18;;
76900;SDS011;65859;43.020;25.096;2023-05-21T10:32:49;6.25;;;3.83;;
76900;SDS011;65859;43.020;25.096;2023-05-21T10:35:17;10.48;;;4.32;;
76900;SDS011;65859;43.020;25.096;2023-05-21T10:37:44;8.65;;;4.50;;
76900;SDS011;65859;43.020;25.096;2023-05-21T10:40:10;9.15;;;4.70;;
76900;SDS011;65859;43.020;25.096;2023-05-21T10:43:00;9.57;;;4.70;;
76900;SDS011;65859;43.020;25.096;2023-05-21T10:45:35;7.13;;;5.53;;
76900;SDS011;65859;43.020;25.096;2023-05-21T10:51:44;5.10;;;3.90;;
76900;SDS011;65859;43.020;25.096;2023-05-21T10:59:45;7.55;;;4.90;;
76900;SDS011;65859;43.020;25.096;2023-05-21T11:02:13;6.95;;;4.70;;
76900;SDS011;65859;43.020;25.096;2023-05-21T11:04:43;7.82;;;4.90;;
76900;SDS011;65859;43.020;25.096;2023-05-21T11:07:11;7.38;;;3.92;;
76900;SDS011;65859;43.020;25.096;2023-05-21T11:09:38;4.40;;;3.85;;
76900;SDS011;65859;43.020;25.096;2023-05-21T11:12:04;6.45;;;4.03;;
76900;SDS011;65859;43.020;25.096;2023-05-21T11:17:08;8.63;;;3.88;;
76900;SDS011;65859;43.020;25.096;2023-05-21T11:19:39;10.20;;;3.83;;
76900;SDS011;65859;43.020;25.096;2023-05-21T11:22:18;7.80;;;3.90;;
76900;SDS011;65859;43.020;25.096;2023-05-21T11:24:47;6.68;;;3.70;;
76900;SDS011;65859;43.020;25.096;2023-05-21T11:30:09;8.98;;;4.57;;
76900;SDS011;65859;43.020;25.096;2023-05-21T11:38:12;8.07;;;4.53;;
76900;SDS011;65859;43.020;25.096;2023-05-21T11:40:48;7.15;;;4.10;;
76900;SDS011;65859;43.020;25.096;2023-05-21T11:43:18;9.15;;;4.38;;
76900;SDS011;65859;43.020;25.096;2023-05-21T11:45:45;7.68;;;4.57;;
76900;SDS011;65859;43.020;25.096;2023-05-21T11:48:14;9.10;;;5.03;;
76900;SDS011;65859;43.020;25.096;2023-05-21T11:50:41;6.93;;;4.80;;
76900;SDS011;65859;43.020;25.096;2023-05-21T11:53:12;7.22;;;4.90;;
76900;SDS011;65859;43.020;25.096;2023-05-21T11:55:39;8.20;;;4.82;;
76900;SDS011;65859;43.020;25.096;2023-05-21T11:58:08;8.18;;;4.70;;
76900;SDS011;65859;43.020;25.096;2023-05-21T12:00:38;8.38;;;4.78;;
76900;SDS011;65859;43.020;25.096;2023-05-21T12:03:04;7.20;;;4.60;;
76900;SDS011;65859;43.020;25.096;2023-05-21T12:05:47;9.48;;;4.85;;
76900;SDS011;65859;43.020;25.096;2023-05-21T12:08:22;8.57;;;4.43;;
76900;SDS011;65859;43.020;25.096;2023-05-21T12:10:57;6.35;;;4.50;;
76900;SDS011;65859;43.020;25.096;2023-05-21T12:13:26;5.53;;;4.07;;
76900;SDS011;65859;43.020;25.096;2023-05-21T12:15:52;8.82;;;4.90;;
76900;SDS011;65859;43.020;25.096;2023-05-21T12:18:19;8.98;;;4.40;;
76900;SDS011;65859;43.020;25.096;2023-05-21T12:20:46;8.32;;;4.43;;
76900;SDS011;65859;43.020;25.096;2023-05-21T12:23:24;7.68;;;4.20;;
76900;SDS011;65859;43.020;25.096;2023-05-21T12:25:50;9.55;;;4.95;;
76900;SDS011;65859;43.020;25.096;2023-05-21T12:28:20;7.05;;;4.95;;
76900;SDS011;65859;43.020;25.096;2023-05-21T12:30:48;5.47;;;4.53;;
76900;SDS011;65859;43.020;25.096;2023-05-21T12:33:15;5.85;;;4.40;;
76900;SDS011;65859;43.020;25.096;2023-05-21T12:35:45;8.55;;;4.10;;
76900;SDS011;65859;43.020;25.096;2023-05-21T12:38:14;7.97;;;4.82;;
76900;SDS011;65859;43.020;25.096;2023-05-21T12:40:40;8.15;;;4.63;;
76900;SDS011;65859;43.020;25.096;2023-05-21T12:43:08;5.32;;;4.20;;
76900;SDS011;65859;43.020;25.096;2023-05-21T12:45:35;8.57;;;4.20;;
76900;SDS011;65859;43.020;25.096;2023-05-21T12:48:05;7.55;;;4.72;;
76900;SDS011;65859;43.020;25.096;2023-05-21T12:50:31;7.30;;;4.82;;
76900;SDS011;65859;43.020;25.096;2023-05-21T12:52:59;7.85;;;4.50;;
76900;SDS011;65859;43.020;25.096;2023-05-21T12:55:25;8.50;;;4.57;;
76900;SDS011;65859;43.020;25.096;2023-05-21T12:58:02;7.68;;;4.50;;
76900;SDS011;65859;43.020;25.096;2023-05-21T13:00:31;15.95;;;8.77;;
76900;SDS011;65859;43.020;25.096;2023-05-21T13:02:58;8.50;;;5.82;;
76900;SDS011;65859;43.020;25.096;2023-05-21T13:05:28;5.68;;;4.28;;
76900;SDS011;65859;43.020;25.096;2023-05-21T13:07:54;7.00;;;4.97;;
76900;SDS011;65859;43.020;25.096;2023-05-21T13:10:22;9.15;;;5.47;;
76900;SDS011;65859;43.020;25.096;2023-05-21T13:12:49;6.57;;;4.20;;
76900;SDS011;65859;43.020;25.096;2023-05-21T13:15:15;7.45;;;4.65;;
76900;SDS011;65859;43.020;25.096;2023-05-21T13:17:41;6.63;;;4.28;;
76900;SDS011;65859;43.020;25.096;2023-05-21T13:20:11;7.80;;;4.53;;
76900;SDS011;65859;43.020;25.096;2023-05-21T13:22:42;9.18;;;5.07;;
76900;SDS011;65859;43.020;25.096;2023-05-21T13:25:17;6.95;;;5.13;;
76900;SDS011;65859;43.020;25.096;2023-05-21T13:27:48;5.68;;;4.70;;
76900;SDS011;65859;43.020;25.096;2023-05-21T13:30:15;5.97;;;4.40;;
76900;SDS011;65859;43.020;25.096;2023-05-21T13:32:42;10.60;;;7.38;;
76900;SDS011;65859;43.020;25.096;2023-05-21T13:35:09;8.40;;;4.82;;
76900;SDS011;65859;43.020;25.096;2023-05-21T13:37:37;11.93;;;4.80;;
76900;SDS011;65859;43.020;25.096;2023-05-21T13:40:04;7.40;;;4.47;;
76900;SDS011;65859;43.020;25.096;2023-05-21T13:42:34;8.85;;;5.45;;
76900;SDS011;65859;43.020;25.096;2023-05-21T13:45:05;8.32;;;5.25;;
76900;SDS011;65859;43.020;25.096;2023-05-21T13:47:33;5.93;;;4.45;;
76900;SDS011;65859;43.020;25.096;2023-05-21T13:50:00;7.63;;;4.93;;
76900;SDS011;65859;43.020;25.096;2023-05-21T13:52:26;5.72;;;4.55;;
76900;SDS011;65859;43.020;25.096;2023-05-21T13:54:52;7.55;;;4.70;;
76900;SDS011;65859;43.020;25.096;2023-05-21T13:57:19;5.57;;;4.65;;
76900;SDS011;65859;43.020;25.096;2023-05-21T13:59:46;5.53;;;4.47;;
76900;SDS011;65859;43.020;25.096;2023-05-21T14:02:14;10.05;;;4.97;;
76900;SDS011;65859;43.020;25.096;2023-05-21T14:04:41;7.80;;;5.05;;
76900;SDS011;65859;43.020;25.096;2023-05-21T14:07:07;6.25;;;4.72;;
76900;SDS011;65859;43.020;25.096;2023-05-21T14:09:34;7.03;;;5.22;;
76900;SDS011;65859;43.020;25.096;2023-05-21T14:12:00;7.78;;;4.82;;
76900;SDS011;65859;43.020;25.096;2023-05-21T14:14:27;5.88;;;4.57;;
76900;SDS011;65859;43.020;25.096;2023-05-21T14:16:54;5.85;;;4.95;;
76900;SDS011;65859;43.020;25.096;2023-05-21T14:19:20;9.60;;;5.30;;
76900;SDS011;65859;43.020;25.096;2023-05-21T14:21:47;7.13;;;4.90;;
76900;SDS011;65859;43.020;25.096;2023-05-21T14:24:15;13.15;;;6.20;;
76900;SDS011;65859;43.020;25.096;2023-05-21T14:26:42;15.93;;;5.32;;
76900;SDS011;65859;43.020;25.096;2023-05-21T14:29:08;9.90;;;5.38;;
76900;SDS011;65859;43.020;25.096;2023-05-21T14:31:35;11.00;;;5.63;;
76900;SDS011;65859;43.020;25.096;2023-05-21T14:34:02;7.03;;;5.10;;
76900;SDS011;65859;43.020;25.096;2023-05-21T14:36:30;7.05;;;4.47;;
76900;SDS011;65859;43.020;25.096;2023-05-21T14:38:57;8.68;;;4.68;;
76900;SDS011;65859;43.020;25.096;2023-05-21T14:41:23;7.68;;;4.38;;
76900;SDS011;65859;43.020;25.096;2023-05-21T14:43:51;5.85;;;4.18;;
76900;SDS011;65859;43.020;25.096;2023-05-21T14:46:17;7.68;;;4.75;;
76900;SDS011;65859;43.020;25.096;2023-05-21T14:48:43;6.85;;;4.40;;
76900;SDS011;65859;43.020;25.096;2023-05-21T14:51:13;7.88;;;5.38;;
76900;SDS011;65859;43.020;25.096;2023-05-21T14:53:39;7.13;;;4.20;;
76900;SDS011;65859;43.020;25.096;2023-05-21T14:56:06;6.18;;;4.50;;
76900;SDS011;65859;43.020;25.096;2023-05-21T14:58:32;8.27;;;4.20;;